sensor_id;sensor_type;location;lat;lon;timestamp;pressure;altitude;pressure_sealevel;temperature;humidity
68230;BME280;55048;52.220;5.160;2023-06-22T00:02:13;101889.09;;;21.49;70.33
68230;BME280;55048;52.220;5.160;2023-06-22T00:04:38;101884.78;;;21.48;70.48
68230;BME280;55048;52.220;5.160;2023-06-22T00:07:04;101901.00;;;21.53;70.80
68230;BME280;55048;52.220;5.160;2023-06-22T00:09:31;101889.97;;;21.45;71.22
68230;BME280;55048;52.220;5.160;2023-06-22T00:11:56;101888.09;;;21.45;71.09
68230;BME280;55048;52.220;5.160;2023-06-22T00:14:21;101898.56;;;21.52;71.51
68230;BME280;55048;52.220;5.160;2023-06-22T00:16:47;101880.00;;;21.40;71.38
68230;BME280;55048;52.220;5.160;2023-06-22T00:19:14;101902.66;;;21.49;71.59
68230;BME280;55048;52.220;5.160;2023-06-22T00:21:40;101901.84;;;21.49;71.59
68230;BME280;55048;52.220;5.160;2023-06-22T00:24:05;101899.72;;;21.46;71.84
68230;BME280;55048;52.220;5.160;2023-06-22T00:26:31;101902.47;;;21.41;72.19
68230;BME280;55048;52.220;5.160;2023-06-22T00:28:57;101896.06;;;21.31;72.36
68230;BME280;55048;52.220;5.160;2023-06-22T00:31:22;101889.53;;;21.32;72.23
68230;BME280;55048;52.220;5.160;2023-06-22T00:33:48;101897.91;;;21.36;72.45
68230;BME280;55048;52.220;5.160;2023-06-22T00:36:15;101892.75;;;21.34;72.44
68230;BME280;55048;52.220;5.160;2023-06-22T00:38:43;101896.06;;;21.31;72.65
68230;BME280;55048;52.220;5.160;2023-06-22T00:41:09;101894.16;;;21.27;72.78
68230;BME280;55048;52.220;5.160;2023-06-22T00:43:35;101879.63;;;21.18;73.10
68230;BME280;55048;52.220;5.160;2023-06-22T00:46:02;101874.75;;;21.14;73.23
68230;BME280;55048;52.220;5.160;2023-06-22T00:48:27;101870.44;;;21.13;73.80
68230;BME280;55048;52.220;5.160;2023-06-22T00:50:53;101866.13;;;21.12;73.70
68230;BME280;55048;52.220;5.160;2023-06-22T00:53:22;101858.63;;;21.04;73.78
68230;BME280;55048;52.220;5.160;2023-06-22T00:55:48;101869.66;;;21.13;73.87
68230;BME280;55048;52.220;5.160;2023-06-22T00:58:17;101861.63;;;20.98;74.11
68230;BME280;55048;52.220;5.160;2023-06-22T01:00:48;101863.56;;;20.92;74.31
68230;BME280;55048;52.220;5.160;2023-06-22T01:03:13;101870.56;;;20.93;74.43
68230;BME280;55048;52.220;5.160;2023-06-22T01:05:40;101864.38;;;20.93;74.61
68230;BME280;55048;52.220;5.160;2023-06-22T01:13:28;101866.03;;;20.83;75.14
68230;BME280;55048;52.220;5.160;2023-06-22T01:16:02;101872.53;;;20.82;75.10
68230;BME280;55048;52.220;5.160;2023-06-22T01:18:31;101866.88;;;20.79;75.02
68230;BME280;55048;52.220;5.160;2023-06-22T01:21:00;101854.53;;;20.68;75.13
68230;BME280;55048;52.220;5.160;2023-06-22T01:26:18;101867.50;;;20.66;75.76
68230;BME280;55048;52.220;5.160;2023-06-22T01:28:54;101855.09;;;20.59;76.04
68230;BME280;55048;52.220;5.160;2023-06-22T01:31:23;101840.31;;;20.52;75.86
68230;BME280;55048;52.220;5.160;2023-06-22T01:33:52;101850.28;;;20.51;76.03
68230;BME280;55048;52.220;5.160;2023-06-22T01:36:19;101858.66;;;20.55;75.98
68230;BME280;55048;52.220;5.160;2023-06-22T01:38:49;101851.66;;;20.44;75.99
68230;BME280;55048;52.220;5.160;2023-06-22T01:41:18;101853.56;;;20.43;76.06
68230;BME280;55048;52.220;5.160;2023-06-22T01:43:46;101851.41;;;20.40;76.33
68230;BME280;55048;52.220;5.160;2023-06-22T01:46:12;101871.09;;;20.46;76.63
68230;BME280;55048;52.220;5.160;2023-06-22T01:48:39;101859.53;;;20.35;76.75
68230;BME280;55048;52.220;5.160;2023-06-22T01:51:04;101857.63;;;20.35;76.92
68230;BME280;55048;52.220;5.160;2023-06-22T01:53:30;101848.19;;;20.33;76.78
68230;BME280;55048;52.220;5.160;2023-06-22T01:55:56;101846.81;;;20.35;76.88
68230;BME280;55048;52.220;5.160;2023-06-22T01:58:23;101855.47;;;20.32;76.67
68230;BME280;55048;52.220;5.160;2023-06-22T02:00:58;101854.44;;;20.23;77.56
68230;BME280;55048;52.220;5.160;2023-06-22T02:03:32;101857.13;;;20.23;77.37
68230;BME280;55048;52.220;5.160;2023-06-22T02:06:05;101851.72;;;20.23;77.07
68230;BME280;55048;52.220;5.160;2023-06-22T02:08:37;101849.31;;;20.22;77.15
68230;BME280;55048;52.220;5.160;2023-06-22T02:11:03;101846.34;;;20.18;77.29
68230;BME280;55048;52.220;5.160;2023-06-22T02:13:30;101829.69;;;20.06;77.34
68230;BME280;55048;52.220;5.160;2023-06-22T02:15:56;101836.41;;;20.08;77.74
68230;BME280;55048;52.220;5.160;2023-06-22T02:18:21;101833.22;;;19.96;77.87
68230;BME280;55048;52.220;5.160;2023-06-22T02:20:47;101841.03;;;19.98;77.91
68230;BME280;55048;52.220;5.160;2023-06-22T02:23:12;101849.63;;;20.05;77.83
68230;BME280;55048;52.220;5.160;2023-06-22T02:25:38;101849.13;;;20.03;78.09
68230;BME280;55048;52.220;5.160;2023-06-22T02:28:04;101807.06;;;19.76;77.88
68230;BME280;55048;52.220;5.160;2023-06-22T02:30:29;101837.28;;;19.88;78.49
68230;BME280;55048;52.220;5.160;2023-06-22T02:32:54;101846.19;;;19.89;78.40
68230;BME280;55048;52.220;5.160;2023-06-22T02:35:28;101831.91;;;19.83;78.74
68230;BME280;55048;52.220;5.160;2023-06-22T02:38:00;101834.06;;;19.86;78.94
68230;BME280;55048;52.220;5.160;2023-06-22T02:40:26;101837.81;;;19.85;78.92
68230;BME280;55048;52.220;5.160;2023-06-22T02:42:51;101816.28;;;19.70;78.74
68230;BME280;55048;52.220;5.160;2023-06-22T02:45:17;101826.78;;;19.77;78.89
68230;BME280;55048;52.220;5.160;2023-06-22T02:47:42;101846.75;;;19.81;78.50
68230;BME280;55048;52.220;5.160;2023-06-22T02:50:08;101826.56;;;19.68;78.65
68230;BME280;55048;52.220;5.160;2023-06-22T02:52:35;101829.47;;;19.72;79.01
68230;BME280;55048;52.220;5.160;2023-06-22T02:55:01;101841.09;;;19.72;78.99
68230;BME280;55048;52.220;5.160;2023-06-22T02:57:27;101827.09;;;19.65;79.37
68230;BME280;55048;52.220;5.160;2023-06-22T02:59:52;101828.41;;;19.68;79.38
68230;BME280;55048;52.220;5.160;2023-06-22T03:02:18;101816.00;;;19.56;79.82
68230;BME280;55048;52.220;5.160;2023-06-22T03:04:46;101811.41;;;19.57;79.52
68230;BME280;55048;52.220;5.160;2023-06-22T03:07:15;101832.22;;;19.61;79.32
68230;BME280;55048;52.220;5.160;2023-06-22T03:09:40;101817.63;;;19.52;79.27
68230;BME280;55048;52.220;5.160;2023-06-22T03:12:08;101817.34;;;19.49;79.34
68230;BME280;55048;52.220;5.160;2023-06-22T03:14:42;101827.31;;;19.53;79.72
68230;BME280;55048;52.220;5.160;2023-06-22T03:17:09;101836.25;;;19.54;79.55
68230;BME280;55048;52.220;5.160;2023-06-22T03:19:36;101835.16;;;19.55;79.63
68230;BME280;55048;52.220;5.160;2023-06-22T03:22:01;101807.94;;;19.41;79.98
68230;BME280;55048;52.220;5.160;2023-06-22T03:24:26;101822.22;;;19.42;79.63
68230;BME280;55048;52.220;5.160;2023-06-22T03:26:55;101827.91;;;19.40;79.70
68230;BME280;55048;52.220;5.160;2023-06-22T03:29:22;101823.31;;;19.35;79.91
68230;BME280;55048;52.220;5.160;2023-06-22T03:31:47;101809.56;;;19.32;80.22
68230;BME280;55048;52.220;5.160;2023-06-22T03:34:13;101820.34;;;19.42;80.07
68230;BME280;55048;52.220;5.160;2023-06-22T03:36:38;101820.34;;;19.37;80.04
68230;BME280;55048;52.220;5.160;2023-06-22T03:39:04;101820.34;;;19.37;80.19
68230;BME280;55048;52.220;5.160;2023-06-22T03:41:29;101809.84;;;19.35;80.30
68230;BME280;55048;52.220;5.160;2023-06-22T03:43:55;101813.34;;;19.41;80.12
68230;BME280;55048;52.220;5.160;2023-06-22T03:46:20;101815.47;;;19.39;80.44
68230;BME280;55048;52.220;5.160;2023-06-22T03:48:46;101801.19;;;19.28;80.13
68230;BME280;55048;52.220;5.160;2023-06-22T03:51:11;101801.19;;;19.28;80.20
68230;BME280;55048;52.220;5.160;2023-06-22T03:53:37;101813.06;;;19.32;80.36
68230;BME280;55048;52.220;5.160;2023-06-22T03:56:03;101803.63;;;19.25;80.39
68230;BME280;55048;52.220;5.160;2023-06-22T03:58:28;101812.00;;;19.23;80.54
68230;BME280;55048;52.220;5.160;2023-06-22T04:00:58;101822.50;;;19.35;80.36
68230;BME280;55048;52.220;5.160;2023-06-22T04:03:25;101822.50;;;19.35;80.72
68230;BME280;55048;52.220;5.160;2023-06-22T04:05:50;101812.78;;;19.34;80.90
68230;BME280;55048;52.220;5.160;2023-06-22T04:08:16;101815.50;;;19.34;81.21
68230;BME280;55048;52.220;5.160;2023-06-22T04:10:41;101816.28;;;19.34;80.94
68230;BME280;55048;52.220;5.160;2023-06-22T04:13:07;101806.06;;;19.31;81.02
68230;BME280;55048;52.220;5.160;2023-06-22T04:15:32;101800.13;;;19.29;81.41
68230;BME280;55048;52.220;5.160;2023-06-22T04:17:58;101810.63;;;19.41;80.96
68230;BME280;55048;52.220;5.160;2023-06-22T04:20:23;101797.97;;;19.36;81.26
68230;BME280;55048;52.220;5.160;2023-06-22T04:22:53;101799.56;;;19.37;81.12
68230;BME280;55048;52.220;5.160;2023-06-22T04:25:19;101810.91;;;19.45;81.72
68230;BME280;55048;52.220;5.160;2023-06-22T04:27:45;101795.78;;;19.38;82.00
68230;BME280;55048;52.220;5.160;2023-06-22T04:30:11;101789.06;;;19.31;82.45
68230;BME280;55048;52.220;5.160;2023-06-22T04:32:37;101792.56;;;19.36;82.61
68230;BME280;55048;52.220;5.160;2023-06-22T04:35:03;101798.75;;;19.47;83.14
68230;BME280;55048;52.220;5.160;2023-06-22T04:37:30;101788.78;;;19.43;82.98
68230;BME280;55048;52.220;5.160;2023-06-22T04:39:56;101788.25;;;19.46;83.44
68230;BME280;55048;52.220;5.160;2023-06-22T04:42:21;101790.94;;;19.46;83.71
68230;BME280;55048;52.220;5.160;2023-06-22T04:44:47;101806.31;;;19.60;83.54
68230;BME280;55048;52.220;5.160;2023-06-22T04:47:12;101788.22;;;19.56;83.59
68230;BME280;55048;52.220;5.160;2023-06-22T04:49:37;101809.53;;;19.78;83.10
68230;BME280;55048;52.220;5.160;2023-06-22T04:52:05;101808.41;;;19.84;83.00
68230;BME280;55048;52.220;5.160;2023-06-22T04:54:31;101808.94;;;19.91;82.78
68230;BME280;55048;52.220;5.160;2023-06-22T04:57:02;101795.69;;;19.90;83.16
68230;BME280;55048;52.220;5.160;2023-06-22T04:59:29;101806.47;;;19.95;83.34
68230;BME280;55048;52.220;5.160;2023-06-22T05:02:00;101815.09;;;20.07;82.97
68230;BME280;55048;52.220;5.160;2023-06-22T05:04:27;101802.66;;;20.06;83.02
68230;BME280;55048;52.220;5.160;2023-06-22T05:07:02;101812.06;;;20.13;83.31
68230;BME280;55048;52.220;5.160;2023-06-22T05:09:29;101786.75;;;19.99;83.56
68230;BME280;55048;52.220;5.160;2023-06-22T05:11:55;101795.91;;;20.08;83.72
68230;BME280;55048;52.220;5.160;2023-06-22T05:14:22;101791.81;;;20.16;83.62
68230;BME280;55048;52.220;5.160;2023-06-22T05:16:48;101789.91;;;20.17;83.49
68230;BME280;55048;52.220;5.160;2023-06-22T05:19:14;101792.84;;;20.25;83.76
68230;BME280;55048;52.220;5.160;2023-06-22T05:21:39;101796.34;;;20.31;83.87
68230;BME280;55048;52.220;5.160;2023-06-22T05:24:05;101790.66;;;20.27;83.97
68230;BME280;55048;52.220;5.160;2023-06-22T05:26:31;101790.13;;;20.30;83.98
68230;BME280;55048;52.220;5.160;2023-06-22T05:28:59;101808.16;;;20.40;83.69
68230;BME280;55048;52.220;5.160;2023-06-22T05:31:26;101802.72;;;20.45;83.68
68230;BME280;55048;52.220;5.160;2023-06-22T05:33:54;101810.00;;;20.55;83.90
68230;BME280;55048;52.220;5.160;2023-06-22T05:36:20;101798.38;;;20.54;83.71
68230;BME280;55048;52.220;5.160;2023-06-22T05:38:46;101796.50;;;20.55;84.71
68230;BME280;55048;52.220;5.160;2023-06-22T05:41:12;101805.06;;;20.67;84.19
68230;BME280;55048;52.220;5.160;2023-06-22T05:43:39;101805.88;;;20.68;84.51
68230;BME280;55048;52.220;5.160;2023-06-22T05:46:05;101807.25;;;20.60;84.59
68230;BME280;55048;52.220;5.160;2023-06-22T05:48:31;101820.16;;;20.73;84.41
68230;BME280;55048;52.220;5.160;2023-06-22T05:50:56;101824.97;;;20.81;84.23
68230;BME280;55048;52.220;5.160;2023-06-22T05:53:22;101811.97;;;20.83;84.86
68230;BME280;55048;52.220;5.160;2023-06-22T05:55:47;101827.28;;;20.98;83.79
68230;BME280;55048;52.220;5.160;2023-06-22T05:58:13;101830.63;;;21.19;83.21
68230;BME280;55048;52.220;5.160;2023-06-22T06:00:39;101828.41;;;21.31;82.98
68230;BME280;55048;52.220;5.160;2023-06-22T06:03:05;101805.16;;;21.25;82.69
68230;BME280;55048;52.220;5.160;2023-06-22T06:05:32;101808.06;;;21.34;82.72
68230;BME280;55048;52.220;5.160;2023-06-22T06:07:58;101825.56;;;21.47;82.46
68230;BME280;55048;52.220;5.160;2023-06-22T06:10:23;101810.41;;;21.46;82.42
68230;BME280;55048;52.220;5.160;2023-06-22T06:12:49;101824.28;;;21.63;82.28
68230;BME280;55048;52.220;5.160;2023-06-22T06:15:14;101818.66;;;21.83;81.65
68230;BME280;55048;52.220;5.160;2023-06-22T06:17:50;101822.59;;;22.20;80.38
68230;BME280;55048;52.220;5.160;2023-06-22T06:20:18;101792.03;;;22.14;79.64
68230;BME280;55048;52.220;5.160;2023-06-22T06:22:44;101794.56;;;22.30;79.23
68230;BME280;55048;52.220;5.160;2023-06-22T06:25:09;101808.19;;;22.44;78.72
68230;BME280;55048;52.220;5.160;2023-06-22T06:27:35;101795.13;;;22.46;78.00
68230;BME280;55048;52.220;5.160;2023-06-22T06:30:00;101798.78;;;22.55;77.83
68230;BME280;55048;52.220;5.160;2023-06-22T06:32:26;101791.69;;;22.40;77.92
68230;BME280;55048;52.220;5.160;2023-06-22T06:34:51;101801.44;;;22.60;77.66
68230;BME280;55048;52.220;5.160;2023-06-22T06:37:17;101800.47;;;22.70;77.25
68230;BME280;55048;52.220;5.160;2023-06-22T06:39:44;101779.38;;;22.66;76.51
68230;BME280;55048;52.220;5.160;2023-06-22T06:42:09;101797.69;;;22.75;76.52
68230;BME280;55048;52.220;5.160;2023-06-22T06:44:36;101782.59;;;22.69;76.23
68230;BME280;55048;52.220;5.160;2023-06-22T06:47:03;101783.63;;;22.73;76.05
68230;BME280;55048;52.220;5.160;2023-06-22T06:49:29;101792.78;;;22.77;75.86
68230;BME280;55048;52.220;5.160;2023-06-22T06:51:54;101785.38;;;22.82;75.28
68230;BME280;55048;52.220;5.160;2023-06-22T06:54:21;101795.63;;;23.04;74.65
68230;BME280;55048;52.220;5.160;2023-06-22T06:56:47;101795.44;;;23.14;74.08
68230;BME280;55048;52.220;5.160;2023-06-22T06:59:14;101778.63;;;23.12;73.54
68230;BME280;55048;52.220;5.160;2023-06-22T07:01:41;101794.84;;;23.31;73.37
68230;BME280;55048;52.220;5.160;2023-06-22T07:04:06;101784.59;;;23.14;72.54
68230;BME280;55048;52.220;5.160;2023-06-22T07:06:32;101786.81;;;23.26;72.19
68230;BME280;55048;52.220;5.160;2023-06-22T07:08:59;101768.63;;;23.27;71.90
68230;BME280;55048;52.220;5.160;2023-06-22T07:11:25;101783.66;;;23.52;71.38
68230;BME280;55048;52.220;5.160;2023-06-22T07:13:50;101776.03;;;23.67;70.47
68230;BME280;55048;52.220;5.160;2023-06-22T07:16:16;101763.25;;;23.68;70.03
68230;BME280;55048;52.220;5.160;2023-06-22T07:18:41;101780.66;;;23.81;69.58
68230;BME280;55048;52.220;5.160;2023-06-22T07:21:06;101772.09;;;23.87;69.16
68230;BME280;55048;52.220;5.160;2023-06-22T07:23:32;101776.00;;;23.95;68.91
68230;BME280;55048;52.220;5.160;2023-06-22T07:25:58;101764.03;;;23.96;68.53
68230;BME280;55048;52.220;5.160;2023-06-22T07:28:27;101754.56;;;24.07;68.32
68230;BME280;55048;52.220;5.160;2023-06-22T07:30:52;101774.84;;;24.37;67.71
68230;BME280;55048;52.220;5.160;2023-06-22T07:33:18;101783.69;;;24.43;67.51
68230;BME280;55048;52.220;5.160;2023-06-22T07:35:43;101769.69;;;24.50;66.93
68230;BME280;55048;52.220;5.160;2023-06-22T07:38:09;101771.84;;;24.61;66.78
68230;BME280;55048;52.220;5.160;2023-06-22T07:40:36;101776.13;;;24.76;66.59
68230;BME280;55048;52.220;5.160;2023-06-22T07:43:02;101766.59;;;24.87;66.18
68230;BME280;55048;52.220;5.160;2023-06-22T07:45:29;101755.19;;;25.08;65.46
68230;BME280;55048;52.220;5.160;2023-06-22T07:47:54;101761.34;;;25.22;64.78
68230;BME280;55048;52.220;5.160;2023-06-22T07:50:20;101764.31;;;25.34;64.20
68230;BME280;55048;52.220;5.160;2023-06-22T07:52:45;101753.88;;;25.28;63.93
68230;BME280;55048;52.220;5.160;2023-06-22T07:55:12;101758.25;;;25.37;63.07
68230;BME280;55048;52.220;5.160;2023-06-22T07:57:38;101738.72;;;25.44;63.31
68230;BME280;55048;52.220;5.160;2023-06-22T08:00:05;101757.19;;;25.56;63.11
68230;BME280;55048;52.220;5.160;2023-06-22T08:02:43;101760.41;;;25.66;62.68
68230;BME280;55048;52.220;5.160;2023-06-22T08:05:09;101767.69;;;25.80;62.39
68230;BME280;55048;52.220;5.160;2023-06-22T08:07:36;101752.63;;;25.82;62.40
68230;BME280;55048;52.220;5.160;2023-06-22T08:10:03;101747.03;;;25.87;61.53
68230;BME280;55048;52.220;5.160;2023-06-22T08:12:29;101747.38;;;25.94;62.16
68230;BME280;55048;52.220;5.160;2023-06-22T08:14:54;101736.91;;;25.88;61.49
68230;BME280;55048;52.220;5.160;2023-06-22T08:17:20;101741.44;;;25.84;61.12
68230;BME280;55048;52.220;5.160;2023-06-22T08:19:45;101734.72;;;25.99;61.40
68230;BME280;55048;52.220;5.160;2023-06-22T08:22:11;101739.16;;;25.77;61.29
68230;BME280;55048;52.220;5.160;2023-06-22T08:24:36;101727.31;;;25.90;60.71
68230;BME280;55048;52.220;5.160;2023-06-22T08:27:02;101711.78;;;26.00;60.59
68230;BME280;55048;52.220;5.160;2023-06-22T08:29:27;101701.03;;;26.03;60.54
68230;BME280;55048;52.220;5.160;2023-06-22T08:31:53;101706.16;;;26.05;59.69
68230;BME280;55048;52.220;5.160;2023-06-22T08:34:18;101719.00;;;26.30;58.99
68230;BME280;55048;52.220;5.160;2023-06-22T08:36:48;101701.34;;;26.28;58.77
68230;BME280;55048;52.220;5.160;2023-06-22T08:39:18;101694.78;;;26.29;59.28
68230;BME280;55048;52.220;5.160;2023-06-22T08:41:45;101712.13;;;26.50;59.03
68230;BME280;55048;52.220;5.160;2023-06-22T08:44:11;101714.97;;;26.62;58.69
68230;BME280;55048;52.220;5.160;2023-06-22T08:46:36;101717.56;;;26.67;57.67
68230;BME280;55048;52.220;5.160;2023-06-22T08:49:04;101715.63;;;26.59;58.02
68230;BME280;55048;52.220;5.160;2023-06-22T08:51:29;101693.97;;;26.54;58.27
68230;BME280;55048;52.220;5.160;2023-06-22T08:53:55;101693.00;;;26.67;57.87
68230;BME280;55048;52.220;5.160;2023-06-22T08:56:20;101690.19;;;26.85;57.21
68230;BME280;55048;52.220;5.160;2023-06-22T08:58:46;101681.66;;;26.95;56.57
68230;BME280;55048;52.220;5.160;2023-06-22T09:01:11;101686.63;;;27.02;56.21
68230;BME280;55048;52.220;5.160;2023-06-22T09:03:36;101696.69;;;27.18;56.26
68230;BME280;55048;52.220;5.160;2023-06-22T09:06:03;101694.72;;;27.28;55.92
68230;BME280;55048;52.220;5.160;2023-06-22T09:08:28;101692.88;;;27.02;56.20
68230;BME280;55048;52.220;5.160;2023-06-22T09:10:54;101699.94;;;27.12;56.03
68230;BME280;55048;52.220;5.160;2023-06-22T09:13:19;101699.28;;;27.06;55.37
68230;BME280;55048;52.220;5.160;2023-06-22T09:15:44;101694.66;;;26.98;55.76
68230;BME280;55048;52.220;5.160;2023-06-22T09:18:10;101686.84;;;26.79;55.75
68230;BME280;55048;52.220;5.160;2023-06-22T09:20:36;101694.59;;;26.60;55.25
68230;BME280;55048;52.220;5.160;2023-06-22T09:23:01;101678.22;;;26.42;54.51
68230;BME280;55048;52.220;5.160;2023-06-22T09:25:27;101672.31;;;26.40;54.29
68230;BME280;55048;52.220;5.160;2023-06-22T09:27:52;101666.69;;;26.37;54.38
68230;BME280;55048;52.220;5.160;2023-06-22T09:30:18;101676.66;;;26.59;53.98
68230;BME280;55048;52.220;5.160;2023-06-22T09:32:44;101684.00;;;26.67;53.13
68230;BME280;55048;52.220;5.160;2023-06-22T09:35:09;101679.00;;;26.78;53.45
68230;BME280;55048;52.220;5.160;2023-06-22T09:37:36;101673.22;;;26.79;53.53
68230;BME280;55048;52.220;5.160;2023-06-22T09:40:02;101687.59;;;26.97;52.96
68230;BME280;55048;52.220;5.160;2023-06-22T09:42:32;101681.53;;;26.91;52.57
68230;BME280;55048;52.220;5.160;2023-06-22T09:44:59;101689.84;;;26.95;52.60
68230;BME280;55048;52.220;5.160;2023-06-22T09:47:24;101687.00;;;26.91;52.41
68230;BME280;55048;52.220;5.160;2023-06-22T09:49:50;101690.34;;;26.88;52.12
68230;BME280;55048;52.220;5.160;2023-06-22T09:52:15;101681.31;;;26.58;51.10
68230;BME280;55048;52.220;5.160;2023-06-22T09:54:41;101689.13;;;26.68;51.15
68230;BME280;55048;52.220;5.160;2023-06-22T09:57:06;101650.81;;;26.48;52.21
68230;BME280;55048;52.220;5.160;2023-06-22T09:59:32;101685.09;;;26.75;52.56
68230;BME280;55048;52.220;5.160;2023-06-22T10:01:57;101674.16;;;26.83;52.09
68230;BME280;55048;52.220;5.160;2023-06-22T10:04:22;101674.78;;;26.89;50.99
68230;BME280;55048;52.220;5.160;2023-06-22T10:06:49;101679.22;;;27.02;50.94
68230;BME280;55048;52.220;5.160;2023-06-22T10:09:15;101672.63;;;27.12;51.26
68230;BME280;55048;52.220;5.160;2023-06-22T10:11:40;101657.53;;;27.06;51.90
68230;BME280;55048;52.220;5.160;2023-06-22T10:14:06;101652.53;;;27.08;52.07
68230;BME280;55048;52.220;5.160;2023-06-22T10:16:32;101668.72;;;27.21;51.93
68230;BME280;55048;52.220;5.160;2023-06-22T10:18:57;101664.78;;;27.10;52.36
68230;BME280;55048;52.220;5.160;2023-06-22T10:21:23;101672.97;;;27.02;52.23
68230;BME280;55048;52.220;5.160;2023-06-22T10:23:48;101659.03;;;26.86;52.42
68230;BME280;55048;52.220;5.160;2023-06-22T10:26:14;101653.50;;;26.74;52.15
68230;BME280;55048;52.220;5.160;2023-06-22T10:28:39;101660.25;;;26.67;51.93
68230;BME280;55048;52.220;5.160;2023-06-22T10:31:05;101664.16;;;26.49;52.14
68230;BME280;55048;52.220;5.160;2023-06-22T10:33:30;101662.03;;;26.55;52.34
68230;BME280;55048;52.220;5.160;2023-06-22T10:35:55;101662.50;;;26.57;52.37
68230;BME280;55048;52.220;5.160;2023-06-22T10:38:21;101636.25;;;26.26;51.49
68230;BME280;55048;52.220;5.160;2023-06-22T10:40:46;101641.38;;;26.28;51.32
68230;BME280;55048;52.220;5.160;2023-06-22T10:43:12;101659.66;;;26.27;51.95
68230;BME280;55048;52.220;5.160;2023-06-22T10:45:37;101654.22;;;26.18;51.36
68230;BME280;55048;52.220;5.160;2023-06-22T10:48:03;101681.63;;;26.22;51.22
68230;BME280;55048;52.220;5.160;2023-06-22T10:50:28;101655.34;;;26.09;51.47
68230;BME280;55048;52.220;5.160;2023-06-22T10:52:56;101661.25;;;26.19;51.73
68230;BME280;55048;52.220;5.160;2023-06-22T10:55:21;101676.19;;;26.05;52.65
68230;BME280;55048;52.220;5.160;2023-06-22T10:57:47;101672.50;;;26.09;52.55
68230;BME280;55048;52.220;5.160;2023-06-22T11:00:14;101659.19;;;25.99;52.42
68230;BME280;55048;52.220;5.160;2023-06-22T11:02:39;101677.78;;;26.14;52.89
68230;BME280;55048;52.220;5.160;2023-06-22T11:05:05;101658.22;;;26.12;53.30
68230;BME280;55048;52.220;5.160;2023-06-22T11:07:31;101665.13;;;26.18;53.77
68230;BME280;55048;52.220;5.160;2023-06-22T11:09:56;101670.56;;;26.18;53.53
68230;BME280;55048;52.220;5.160;2023-06-22T11:12:22;101692.22;;;26.24;53.13
68230;BME280;55048;52.220;5.160;2023-06-22T11:14:47;101678.91;;;26.22;52.69
68230;BME280;55048;52.220;5.160;2023-06-22T11:17:13;101669.78;;;26.09;53.02
68230;BME280;55048;52.220;5.160;2023-06-22T11:19:38;101676.47;;;26.20;53.02
68230;BME280;55048;52.220;5.160;2023-06-22T11:22:04;101675.53;;;26.25;53.02
68230;BME280;55048;52.220;5.160;2023-06-22T11:24:29;101672.00;;;26.16;52.72
68230;BME280;55048;52.220;5.160;2023-06-22T11:26:54;101672.50;;;26.18;52.56
68230;BME280;55048;52.220;5.160;2023-06-22T11:29:20;101675.84;;;26.15;52.38
68230;BME280;55048;52.220;5.160;2023-06-22T11:31:45;101675.06;;;26.14;52.74
68230;BME280;55048;52.220;5.160;2023-06-22T11:34:11;101664.16;;;26.06;54.10
68230;BME280;55048;52.220;5.160;2023-06-22T11:36:36;101670.91;;;26.00;54.69
68230;BME280;55048;52.220;5.160;2023-06-22T11:39:02;101665.94;;;25.93;55.38
68230;BME280;55048;52.220;5.160;2023-06-22T11:41:27;101665.28;;;25.96;55.90
68230;BME280;55048;52.220;5.160;2023-06-22T11:43:53;101659.50;;;25.80;56.84
68230;BME280;55048;52.220;5.160;2023-06-22T11:46:18;101633.81;;;25.64;57.71
68230;BME280;55048;52.220;5.160;2023-06-22T11:48:43;101642.66;;;25.69;57.74
68230;BME280;55048;52.220;5.160;2023-06-22T11:51:09;101639.91;;;25.52;57.92
68230;BME280;55048;52.220;5.160;2023-06-22T11:53:35;101650.81;;;25.61;58.86
68230;BME280;55048;52.220;5.160;2023-06-22T11:56:01;101652.72;;;25.60;58.83
68230;BME280;55048;52.220;5.160;2023-06-22T11:58:26;101639.25;;;25.55;59.38
68230;BME280;55048;52.220;5.160;2023-06-22T12:00:52;101639.25;;;25.55;60.30
68230;BME280;55048;52.220;5.160;2023-06-22T12:03:18;101612.66;;;25.43;60.78
68230;BME280;55048;52.220;5.160;2023-06-22T12:05:44;101637.00;;;25.57;60.57
68230;BME280;55048;52.220;5.160;2023-06-22T12:08:09;101613.13;;;25.54;60.92
68230;BME280;55048;52.220;5.160;2023-06-22T12:10:35;101613.47;;;25.61;61.31
68230;BME280;55048;52.220;5.160;2023-06-22T12:13:00;101618.75;;;25.66;61.58
68230;BME280;55048;52.220;5.160;2023-06-22T12:15:26;101595.84;;;25.59;62.39
68230;BME280;55048;52.220;5.160;2023-06-22T12:17:52;101592.63;;;25.48;62.99
68230;BME280;55048;52.220;5.160;2023-06-22T12:20:18;101607.50;;;25.51;63.43
68230;BME280;55048;52.220;5.160;2023-06-22T12:22:44;101608.97;;;25.48;63.22
68230;BME280;55048;52.220;5.160;2023-06-22T12:25:09;101605.78;;;25.46;63.51
68230;BME280;55048;52.220;5.160;2023-06-22T12:27:35;101601.59;;;25.49;63.92
68230;BME280;55048;52.220;5.160;2023-06-22T12:30:02;101600.63;;;25.44;64.30
68230;BME280;55048;52.220;5.160;2023-06-22T12:32:28;101600.63;;;25.44;63.98
68230;BME280;55048;52.220;5.160;2023-06-22T12:34:53;101590.69;;;25.40;64.45
68230;BME280;55048;52.220;5.160;2023-06-22T12:37:19;101587.00;;;25.36;64.69
68230;BME280;55048;52.220;5.160;2023-06-22T12:39:44;101597.38;;;25.16;64.91
68230;BME280;55048;52.220;5.160;2023-06-22T12:42:10;101614.84;;;25.24;64.44
68230;BME280;55048;52.220;5.160;2023-06-22T12:44:40;101598.97;;;25.09;65.12
68230;BME280;55048;52.220;5.160;2023-06-22T12:47:06;101605.06;;;25.14;65.05
68230;BME280;55048;52.220;5.160;2023-06-22T12:49:32;101593.75;;;24.99;64.75
68230;BME280;55048;52.220;5.160;2023-06-22T12:51:57;101577.25;;;24.86;64.62
68230;BME280;55048;52.220;5.160;2023-06-22T12:54:22;101593.44;;;24.91;65.19